WetterOnline ( http://www.wetteronline.de )

Wetter aktuell Ueckermünde

Aktuelles Wetter: Ueckermünde (7m)

6-stündlich | Neueste Meldungen
Ortszeit Temperatur Wetter
So, 23.09. 2:00 10.0° C wolkig
Sa, 22.09. 20:00 11.1° C wolkig
Sa, 22.09. 14:00 16.5° C bewölkt
Sa, 22.09. 8:00 10.1° C wolkig
Sa, 22.09. 2:00 11.1° C wolkenlos
Fr, 21.09. 20:00 12.9° C bewölkt
Fr, 21.09. 14:00 28.0° C wolkig
Fr, 21.09. 8:00 16.9° C wolkig
Ortszeit Temperatur Wetter
So, 23.09. 2:30 9.5° C wolkig
So, 23.09. 2:20 9.5° C wolkig
So, 23.09. 2:10 9.6° C bedeckt
So, 23.09. 2:00 10.0° C wolkig
So, 23.09. 1:40 10.1° C bedeckt
So, 23.09. 1:30 10.4° C bedeckt
So, 23.09. 1:00 10.5° C bedeckt
So, 23.09. 0:30 10.8° C wolkig
So, 23.09. 0:00 11.2° C bewölkt
Sa, 22.09. 23:30 11.3° C wolkig
Ortszeit Relative Feuchte Sichtweite
So, 23.09. 2:00 86% 70 km
Sa, 22.09. 20:00 81% 70 km
Sa, 22.09. 14:00 51% 23 km
Sa, 22.09. 8:00 83% 25 km
Sa, 22.09. 2:00 78% 70 km
Fr, 21.09. 20:00 97% 19 km
Fr, 21.09. 14:00 40% 29 km
Fr, 21.09. 8:00 75% 29 km
Ortszeit Relative Feuchte Sichtweite
So, 23.09. 2:30 89% 70 km
So, 23.09. 2:20 89% -
So, 23.09. 2:10 88% -
So, 23.09. 2:00 86% 70 km
So, 23.09. 1:40 85% -
So, 23.09. 1:30 83% 70 km
So, 23.09. 1:00 82% 70 km
So, 23.09. 0:30 81% 70 km
So, 23.09. 0:00 81% 70 km
Sa, 22.09. 23:30 82% 70 km
Ortszeit Niederschlagsmenge Niederschlagsart
So, 23.09. 2:00 0.0 l/m2 in 6 Std. -
Sa, 22.09. 20:00 0.4 l/m2 in 12 Std. -
Sa, 22.09. 14:00 0.0 l/m2 in 6 Std. -
Sa, 22.09. 8:00 0.1 l/m2 in 12 Std. -
Sa, 22.09. 2:00 0.1 l/m2 in 6 Std. -
Fr, 21.09. 20:00 6 l/m2 in 12 Std. -
Fr, 21.09. 14:00 0.1 l/m2 in 6 Std. Sprühregen, Niederschlag
Fr, 21.09. 8:00 0.0 l/m2 in 12 Std. -
Ortszeit Niederschlagsmenge Niederschlagsart
So, 23.09. 2:30 0.0 l/m2 in 1 Std. -
So, 23.09. 2:20 keine Meldung -
So, 23.09. 2:10 keine Meldung -
So, 23.09. 2:00 0.0 l/m2 in 1 Std. -
So, 23.09. 1:40 keine Meldung -
So, 23.09. 1:30 0.0 l/m2 in 1 Std. -
So, 23.09. 1:00 0.0 l/m2 in 1 Std. -
So, 23.09. 0:30 0.0 l/m2 in 1 Std. -
So, 23.09. 0:00 0.0 l/m2 in 1 Std. -
Sa, 22.09. 23:30 0.0 l/m2 in 1 Std. -
Ortszeit Stärke Spitze Richtung
km/h Bft. km/h Grad Sektor
So, 23.09. 2:00 15 3 35 230° SW
Sa, 22.09. 20:00 22 4 50 250° W
Sa, 22.09. 14:00 30 5 44 240° SW
Sa, 22.09. 8:00 17 3 37 230° SW
Sa, 22.09. 2:00 20 4 31 230° SW
Fr, 21.09. 20:00 9 2 78 210° SW
Fr, 21.09. 14:00 31 5 52 190° S
Fr, 21.09. 8:00 14 3 25 170° S
Ortszeit Stärke Spitze Richtung
km/h Bft. km/h Grad Sektor
So, 23.09. 2:30 14 3 25 230° SW
So, 23.09. 2:20 14 3 - 230° SW
So, 23.09. 2:10 14 3 - 230° SW
So, 23.09. 2:00 15 3 28 230° SW
So, 23.09. 1:40 15 3 - 240° SW
So, 23.09. 1:30 18 3 29 240° SW
So, 23.09. 1:00 15 3 26 230° SW
So, 23.09. 0:30 14 3 25 240° SW
So, 23.09. 0:00 17 3 28 230° SW
Sa, 22.09. 23:30 17 3 28 230° SW
Ortszeit Untergrenze Bedeckung Gattung
total tief tief mittel hoch
So, 23.09. 2:00 2100 m 8/8 1/8 - - -
Sa, 22.09. 20:00 1440 m 6/8 6/8 - - -
Sa, 22.09. 14:00 1260 m 7/8 7/8 - - -
Sa, 22.09. 8:00 630 m 6/8 6/8 - - -
Sa, 22.09. 2:00 - 0/8 0/8 - - -
Fr, 21.09. 20:00 2400 m 8/8 7/8 - - -
Fr, 21.09. 14:00 7200 m 7/8 0/8 - - -
Fr, 21.09. 8:00 9000 m 7/8 0/8 - - -
Ortszeit Bedeckungsgrad in Achtel und Wolkenuntergrenze
So, 23.09. 2:30 6(4800m)
So, 23.09. 2:20 6(4800m)
So, 23.09. 2:10 8(4800m)
So, 23.09. 2:00 1(2100m) 8(4800m)
So, 23.09. 1:40 8(4800m)
So, 23.09. 1:30 8(4800m)
So, 23.09. 1:00 8(4800m)
So, 23.09. 0:30 1(1500m) 8(4500m) 8(5400m)
So, 23.09. 0:00 4(1500m) 8(4500m) 8(5400m)
Sa, 22.09. 23:30 2(1800m) 8(3000m) 8(4500m)
Ortszeit Luftdruck NN (hPa) Tendenz (hPa in 3 Std.)
So, 23.09. 2:00 1014 - 0,4
Sa, 22.09. 20:00 1014 + 0,4
Sa, 22.09. 14:00 1015 - 0,2
Sa, 22.09. 8:00 1013 + 1,7
Sa, 22.09. 2:00 1010 + 1,1
Fr, 21.09. 20:00 1005 + 1,5
Fr, 21.09. 14:00 1002 - 3,3
Fr, 21.09. 8:00 1007 - 2,0
Ortszeit Luftdruck NN (hPa) Tendenz (hPa in 3 Std.)
So, 23.09. 2:30 1014 - 0,3
So, 23.09. 2:20 1014 keine Meldung
So, 23.09. 2:10 1014 keine Meldung
So, 23.09. 2:00 1014 - 0,4
So, 23.09. 1:40 1014 keine Meldung
So, 23.09. 1:30 1014 - 0,4
So, 23.09. 1:00 1014 - 0,3
So, 23.09. 0:30 1014 - 0,3
So, 23.09. 0:00 1014 - 0,1
Sa, 22.09. 23:30 1014 - 0,2
Ortszeit Schneehöhe (cm)
So, 23.09. 2:00 -
Sa, 22.09. 20:00 -
Sa, 22.09. 14:00 -
Sa, 22.09. 8:00 -
Sa, 22.09. 2:00 -
Fr, 21.09. 20:00 -
Fr, 21.09. 14:00 -
Fr, 21.09. 8:00 -
Ortszeit Schneehöhe (cm)
So, 23.09. 2:30 -
So, 23.09. 2:20 -
So, 23.09. 2:10 -
So, 23.09. 2:00 -
So, 23.09. 1:40 -
So, 23.09. 1:30 -
So, 23.09. 1:00 -
So, 23.09. 0:30 -
So, 23.09. 0:00 -
Sa, 22.09. 23:30 -
Link zu dieser Seite / Seite empfehlen

Das Wetter in ...